sensor_id;sensor_type;location;lat;lon;timestamp;P1;durP1;ratioP1;P2;durP2;ratioP2
13012;SDS011;22580;57.670;12.006;2023-04-24T00:00:14;4.70;;;4.30;;
13012;SDS011;22580;57.670;12.006;2023-04-24T00:02:42;4.10;;;3.70;;
13012;SDS011;22580;57.670;12.006;2023-04-24T00:05:13;4.33;;;3.93;;
13012;SDS011;22580;57.670;12.006;2023-04-24T00:07:42;4.20;;;3.80;;
13012;SDS011;22580;57.670;12.006;2023-04-24T00:10:10;3.20;;;2.90;;
13012;SDS011;22580;57.670;12.006;2023-04-24T00:12:37;3.20;;;2.90;;
13012;SDS011;22580;57.670;12.006;2023-04-24T00:15:05;3.20;;;2.90;;
13012;SDS011;22580;57.670;12.006;2023-04-24T00:17:32;2.60;;;2.40;;
13012;SDS011;22580;57.670;12.006;2023-04-24T00:19:59;2.47;;;2.27;;
13012;SDS011;22580;57.670;12.006;2023-04-24T00:22:31;2.30;;;2.10;;
13012;SDS011;22580;57.670;12.006;2023-04-24T00:24:58;2.00;;;1.90;;
13012;SDS011;22580;57.670;12.006;2023-04-24T00:27:25;2.23;;;2.13;;
13012;SDS011;22580;57.670;12.006;2023-04-24T00:29:52;3.57;;;3.27;;
13012;SDS011;22580;57.670;12.006;2023-04-24T00:32:19;3.27;;;2.97;;
13012;SDS011;22580;57.670;12.006;2023-04-24T00:34:45;3.13;;;2.90;;
13012;SDS011;22580;57.670;12.006;2023-04-24T00:37:13;3.93;;;3.53;;
13012;SDS011;22580;57.670;12.006;2023-04-24T00:39:42;3.63;;;3.33;;
13012;SDS011;22580;57.670;12.006;2023-04-24T00:42:09;4.43;;;4.03;;
13012;SDS011;22580;57.670;12.006;2023-04-24T00:44:36;4.37;;;3.97;;
13012;SDS011;22580;57.670;12.006;2023-04-24T00:47:03;4.03;;;3.63;;
13012;SDS011;22580;57.670;12.006;2023-04-24T00:49:30;4.40;;;4.00;;
13012;SDS011;22580;57.670;12.006;2023-04-24T00:51:57;4.70;;;4.30;;
13012;SDS011;22580;57.670;12.006;2023-04-24T00:54:24;4.77;;;4.37;;
13012;SDS011;22580;57.670;12.006;2023-04-24T00:56:52;4.93;;;4.47;;
13012;SDS011;22580;57.670;12.006;2023-04-24T00:59:20;4.80;;;4.40;;
13012;SDS011;22580;57.670;12.006;2023-04-24T01:01:47;5.50;;;5.00;;
13012;SDS011;22580;57.670;12.006;2023-04-24T01:04:13;3.97;;;3.57;;
13012;SDS011;22580;57.670;12.006;2023-04-24T01:06:40;4.03;;;3.63;;
13012;SDS011;22580;57.670;12.006;2023-04-24T01:09:10;5.30;;;4.80;;
13012;SDS011;22580;57.670;12.006;2023-04-24T01:11:38;3.90;;;3.60;;
13012;SDS011;22580;57.670;12.006;2023-04-24T01:14:09;4.27;;;3.87;;
13012;SDS011;22580;57.670;12.006;2023-04-24T01:16:36;3.50;;;3.20;;
13012;SDS011;22580;57.670;12.006;2023-04-24T01:19:06;3.40;;;3.13;;
13012;SDS011;22580;57.670;12.006;2023-04-24T01:21:34;4.07;;;3.67;;
13012;SDS011;22580;57.670;12.006;2023-04-24T01:24:04;3.90;;;3.60;;
13012;SDS011;22580;57.670;12.006;2023-04-24T01:26:32;3.70;;;3.40;;
13012;SDS011;22580;57.670;12.006;2023-04-24T01:28:59;2.97;;;2.77;;
13012;SDS011;22580;57.670;12.006;2023-04-24T01:31:27;3.40;;;3.10;;
13012;SDS011;22580;57.670;12.006;2023-04-24T01:33:54;4.30;;;3.90;;
13012;SDS011;22580;57.670;12.006;2023-04-24T01:36:23;4.20;;;3.67;;
13012;SDS011;22580;57.670;12.006;2023-04-24T01:38:52;4.60;;;4.20;;
13012;SDS011;22580;57.670;12.006;2023-04-24T01:41:20;4.00;;;3.70;;
13012;SDS011;22580;57.670;12.006;2023-04-24T01:43:48;5.20;;;4.50;;
13012;SDS011;22580;57.670;12.006;2023-04-24T01:46:15;5.13;;;4.63;;
13012;SDS011;22580;57.670;12.006;2023-04-24T01:48:42;4.67;;;4.27;;
13012;SDS011;22580;57.670;12.006;2023-04-24T01:51:11;4.40;;;4.00;;
13012;SDS011;22580;57.670;12.006;2023-04-24T01:53:38;4.87;;;4.37;;
13012;SDS011;22580;57.670;12.006;2023-04-24T01:56:05;4.00;;;3.70;;
13012;SDS011;22580;57.670;12.006;2023-04-24T01:58:34;4.33;;;3.93;;
13012;SDS011;22580;57.670;12.006;2023-04-24T02:01:02;4.27;;;3.87;;
13012;SDS011;22580;57.670;12.006;2023-04-24T02:03:29;5.47;;;4.97;;
13012;SDS011;22580;57.670;12.006;2023-04-24T02:05:56;4.93;;;4.53;;
13012;SDS011;22580;57.670;12.006;2023-04-24T02:08:23;5.30;;;4.80;;
13012;SDS011;22580;57.670;12.006;2023-04-24T02:10:50;4.70;;;4.27;;
13012;SDS011;22580;57.670;12.006;2023-04-24T02:13:17;3.60;;;3.30;;
13012;SDS011;22580;57.670;12.006;2023-04-24T02:15:45;2.80;;;2.60;;
13012;SDS011;22580;57.670;12.006;2023-04-24T02:18:12;2.57;;;2.37;;
13012;SDS011;22580;57.670;12.006;2023-04-24T02:20:40;2.10;;;2.00;;
13012;SDS011;22580;57.670;12.006;2023-04-24T02:23:07;2.67;;;2.47;;
13012;SDS011;22580;57.670;12.006;2023-04-24T02:25:34;2.73;;;2.53;;
13012;SDS011;22580;57.670;12.006;2023-04-24T02:28:01;2.40;;;2.20;;
13012;SDS011;22580;57.670;12.006;2023-04-24T02:30:28;2.23;;;2.07;;
13012;SDS011;22580;57.670;12.006;2023-04-24T02:32:57;2.17;;;2.00;;
13012;SDS011;22580;57.670;12.006;2023-04-24T02:35:23;1.90;;;1.80;;
13012;SDS011;22580;57.670;12.006;2023-04-24T02:37:51;2.20;;;2.00;;
13012;SDS011;22580;57.670;12.006;2023-04-24T02:40:18;2.23;;;2.10;;
13012;SDS011;22580;57.670;12.006;2023-04-24T02:42:45;2.70;;;2.50;;
13012;SDS011;22580;57.670;12.006;2023-04-24T02:45:12;1.97;;;1.87;;
13012;SDS011;22580;57.670;12.006;2023-04-24T02:47:39;2.53;;;2.33;;
13012;SDS011;22580;57.670;12.006;2023-04-24T02:50:08;2.53;;;2.33;;
13012;SDS011;22580;57.670;12.006;2023-04-24T02:52:35;2.00;;;1.90;;
13012;SDS011;22580;57.670;12.006;2023-04-24T02:55:02;1.80;;;1.70;;
13012;SDS011;22580;57.670;12.006;2023-04-24T02:57:29;1.97;;;1.87;;
13012;SDS011;22580;57.670;12.006;2023-04-24T02:59:56;2.00;;;1.90;;
13012;SDS011;22580;57.670;12.006;2023-04-24T03:02:23;2.00;;;1.90;;
13012;SDS011;22580;57.670;12.006;2023-04-24T03:04:50;2.80;;;2.60;;
13012;SDS011;22580;57.670;12.006;2023-04-24T03:07:18;3.40;;;3.13;;
13012;SDS011;22580;57.670;12.006;2023-04-24T03:09:45;4.13;;;3.77;;
13012;SDS011;22580;57.670;12.006;2023-04-24T03:12:12;3.73;;;3.43;;
13012;SDS011;22580;57.670;12.006;2023-04-24T03:14:39;4.33;;;3.93;;
13012;SDS011;22580;57.670;12.006;2023-04-24T03:17:06;3.73;;;3.40;;
13012;SDS011;22580;57.670;12.006;2023-04-24T03:19:33;3.60;;;3.30;;
13012;SDS011;22580;57.670;12.006;2023-04-24T03:22:01;4.20;;;3.80;;
13012;SDS011;22580;57.670;12.006;2023-04-24T03:24:29;2.90;;;2.70;;
13012;SDS011;22580;57.670;12.006;2023-04-24T03:26:56;2.60;;;2.40;;
13012;SDS011;22580;57.670;12.006;2023-04-24T03:29:23;3.37;;;3.07;;
13012;SDS011;22580;57.670;12.006;2023-04-24T03:31:50;2.10;;;2.00;;
13012;SDS011;22580;57.670;12.006;2023-04-24T03:34:17;2.40;;;2.20;;
13012;SDS011;22580;57.670;12.006;2023-04-24T03:36:44;2.40;;;2.20;;
13012;SDS011;22580;57.670;12.006;2023-04-24T03:39:13;1.77;;;1.67;;
13012;SDS011;22580;57.670;12.006;2023-04-24T03:41:42;1.87;;;1.77;;
13012;SDS011;22580;57.670;12.006;2023-04-24T03:44:09;1.70;;;1.60;;
13012;SDS011;22580;57.670;12.006;2023-04-24T03:46:36;2.30;;;2.20;;
13012;SDS011;22580;57.670;12.006;2023-04-24T03:49:03;2.83;;;2.60;;
13012;SDS011;22580;57.670;12.006;2023-04-24T03:51:29;2.90;;;2.70;;
13012;SDS011;22580;57.670;12.006;2023-04-24T03:53:57;3.07;;;2.77;;
13012;SDS011;22580;57.670;12.006;2023-04-24T03:56:24;2.50;;;2.30;;
13012;SDS011;22580;57.670;12.006;2023-04-24T03:58:52;3.20;;;2.93;;
13012;SDS011;22580;57.670;12.006;2023-04-24T04:01:19;2.93;;;2.73;;
13012;SDS011;22580;57.670;12.006;2023-04-24T04:03:46;2.67;;;2.47;;
13012;SDS011;22580;57.670;12.006;2023-04-24T04:06:13;3.07;;;2.87;;
13012;SDS011;22580;57.670;12.006;2023-04-24T04:08:40;3.60;;;3.30;;
13012;SDS011;22580;57.670;12.006;2023-04-24T04:11:06;3.80;;;3.50;;
13012;SDS011;22580;57.670;12.006;2023-04-24T04:13:33;3.83;;;3.53;;
13012;SDS011;22580;57.670;12.006;2023-04-24T04:16:02;3.47;;;3.17;;
13012;SDS011;22580;57.670;12.006;2023-04-24T04:18:28;4.50;;;4.10;;
13012;SDS011;22580;57.670;12.006;2023-04-24T04:20:55;3.53;;;3.23;;
13012;SDS011;22580;57.670;12.006;2023-04-24T04:23:23;2.93;;;2.73;;
13012;SDS011;22580;57.670;12.006;2023-04-24T04:25:50;3.03;;;2.73;;
13012;SDS011;22580;57.670;12.006;2023-04-24T04:28:16;2.67;;;2.47;;
13012;SDS011;22580;57.670;12.006;2023-04-24T04:30:44;3.67;;;3.37;;
13012;SDS011;22580;57.670;12.006;2023-04-24T04:33:13;3.57;;;3.27;;
13012;SDS011;22580;57.670;12.006;2023-04-24T04:35:41;4.10;;;3.80;;
13012;SDS011;22580;57.670;12.006;2023-04-24T04:38:08;3.77;;;3.47;;
13012;SDS011;22580;57.670;12.006;2023-04-24T04:40:36;4.30;;;3.90;;
13012;SDS011;22580;57.670;12.006;2023-04-24T04:43:02;3.20;;;2.90;;
13012;SDS011;22580;57.670;12.006;2023-04-24T04:45:29;3.50;;;3.20;;
13012;SDS011;22580;57.670;12.006;2023-04-24T04:47:57;2.53;;;2.33;;
13012;SDS011;22580;57.670;12.006;2023-04-24T04:50:27;2.60;;;2.40;;
13012;SDS011;22580;57.670;12.006;2023-04-24T04:52:54;3.10;;;2.80;;
13012;SDS011;22580;57.670;12.006;2023-04-24T04:55:21;2.90;;;2.70;;
13012;SDS011;22580;57.670;12.006;2023-04-24T04:57:53;2.80;;;2.60;;
13012;SDS011;22580;57.670;12.006;2023-04-24T05:00:21;3.50;;;3.20;;
13012;SDS011;22580;57.670;12.006;2023-04-24T05:02:49;3.83;;;3.53;;
13012;SDS011;22580;57.670;12.006;2023-04-24T05:05:16;3.83;;;3.53;;
13012;SDS011;22580;57.670;12.006;2023-04-24T05:07:45;3.50;;;3.20;;
13012;SDS011;22580;57.670;12.006;2023-04-24T05:10:12;2.97;;;2.77;;
13012;SDS011;22580;57.670;12.006;2023-04-24T05:12:39;2.90;;;2.70;;
13012;SDS011;22580;57.670;12.006;2023-04-24T05:15:06;2.47;;;2.27;;
13012;SDS011;22580;57.670;12.006;2023-04-24T05:17:44;2.20;;;2.10;;
13012;SDS011;22580;57.670;12.006;2023-04-24T05:20:11;2.23;;;2.13;;
13012;SDS011;22580;57.670;12.006;2023-04-24T05:22:37;3.27;;;3.00;;
13012;SDS011;22580;57.670;12.006;2023-04-24T05:25:06;3.47;;;3.17;;
13012;SDS011;22580;57.670;12.006;2023-04-24T05:27:35;3.43;;;3.13;;
13012;SDS011;22580;57.670;12.006;2023-04-24T05:30:02;3.77;;;3.47;;
13012;SDS011;22580;57.670;12.006;2023-04-24T05:32:30;4.57;;;3.83;;
13012;SDS011;22580;57.670;12.006;2023-04-24T05:34:57;4.23;;;3.83;;
13012;SDS011;22580;57.670;12.006;2023-04-24T05:37:24;4.00;;;3.70;;
13012;SDS011;22580;57.670;12.006;2023-04-24T05:39:52;4.37;;;3.97;;
13012;SDS011;22580;57.670;12.006;2023-04-24T05:42:20;4.10;;;3.70;;
13012;SDS011;22580;57.670;12.006;2023-04-24T05:44:48;3.70;;;3.40;;
13012;SDS011;22580;57.670;12.006;2023-04-24T05:47:15;3.40;;;3.10;;
13012;SDS011;22580;57.670;12.006;2023-04-24T05:49:42;2.83;;;2.63;;
13012;SDS011;22580;57.670;12.006;2023-04-24T05:52:08;2.77;;;2.57;;
13012;SDS011;22580;57.670;12.006;2023-04-24T05:54:35;3.10;;;2.90;;
13012;SDS011;22580;57.670;12.006;2023-04-24T05:57:02;3.50;;;3.20;;
13012;SDS011;22580;57.670;12.006;2023-04-24T05:59:35;3.20;;;3.00;;
13012;SDS011;22580;57.670;12.006;2023-04-24T06:02:03;3.20;;;3.00;;
13012;SDS011;22580;57.670;12.006;2023-04-24T06:04:29;3.27;;;3.07;;
13012;SDS011;22580;57.670;12.006;2023-04-24T06:06:58;3.70;;;3.40;;
13012;SDS011;22580;57.670;12.006;2023-04-24T06:09:25;3.43;;;3.13;;
13012;SDS011;22580;57.670;12.006;2023-04-24T06:11:52;3.27;;;3.07;;
13012;SDS011;22580;57.670;12.006;2023-04-24T06:14:19;2.83;;;2.63;;
13012;SDS011;22580;57.670;12.006;2023-04-24T06:16:48;3.80;;;3.50;;
13012;SDS011;22580;57.670;12.006;2023-04-24T06:19:14;3.00;;;2.70;;
13012;SDS011;22580;57.670;12.006;2023-04-24T06:21:41;3.30;;;3.00;;
13012;SDS011;22580;57.670;12.006;2023-04-24T06:24:08;3.53;;;3.20;;
13012;SDS011;22580;57.670;12.006;2023-04-24T06:26:35;2.90;;;2.70;;
13012;SDS011;22580;57.670;12.006;2023-04-24T06:29:02;3.00;;;2.80;;
13012;SDS011;22580;57.670;12.006;2023-04-24T06:31:30;3.30;;;3.00;;
13012;SDS011;22580;57.670;12.006;2023-04-24T06:34:03;2.70;;;2.50;;
13012;SDS011;22580;57.670;12.006;2023-04-24T06:36:30;2.60;;;2.40;;
13012;SDS011;22580;57.670;12.006;2023-04-24T06:38:59;3.83;;;3.53;;
13012;SDS011;22580;57.670;12.006;2023-04-24T06:41:26;3.97;;;3.67;;
13012;SDS011;22580;57.670;12.006;2023-04-24T06:43:53;3.83;;;3.53;;
13012;SDS011;22580;57.670;12.006;2023-04-24T06:46:20;3.87;;;3.57;;
13012;SDS011;22580;57.670;12.006;2023-04-24T06:48:51;3.93;;;3.53;;
13012;SDS011;22580;57.670;12.006;2023-04-24T06:51:22;4.10;;;3.70;;
13012;SDS011;22580;57.670;12.006;2023-04-24T06:53:49;3.50;;;3.20;;
13012;SDS011;22580;57.670;12.006;2023-04-24T06:56:17;4.13;;;3.83;;
13012;SDS011;22580;57.670;12.006;2023-04-24T06:58:44;4.60;;;4.20;;
13012;SDS011;22580;57.670;12.006;2023-04-24T07:01:11;4.30;;;3.90;;
13012;SDS011;22580;57.670;12.006;2023-04-24T07:03:38;4.00;;;3.70;;
13012;SDS011;22580;57.670;12.006;2023-04-24T07:06:05;5.40;;;4.90;;
13012;SDS011;22580;57.670;12.006;2023-04-24T07:08:34;4.47;;;4.07;;
13012;SDS011;22580;57.670;12.006;2023-04-24T07:11:00;3.73;;;3.43;;
13012;SDS011;22580;57.670;12.006;2023-04-24T07:13:28;4.63;;;4.23;;
13012;SDS011;22580;57.670;12.006;2023-04-24T07:15:55;5.40;;;4.90;;
13012;SDS011;22580;57.670;12.006;2023-04-24T07:18:22;5.13;;;4.63;;
13012;SDS011;22580;57.670;12.006;2023-04-24T07:20:49;5.27;;;4.77;;
13012;SDS011;22580;57.670;12.006;2023-04-24T07:23:16;4.90;;;4.50;;
13012;SDS011;22580;57.670;12.006;2023-04-24T07:25:45;4.63;;;4.23;;
13012;SDS011;22580;57.670;12.006;2023-04-24T07:28:12;4.63;;;4.13;;
13012;SDS011;22580;57.670;12.006;2023-04-24T07:30:39;4.77;;;4.37;;
13012;SDS011;22580;57.670;12.006;2023-04-24T07:33:06;4.50;;;4.10;;
13012;SDS011;22580;57.670;12.006;2023-04-24T07:35:33;4.97;;;4.40;;
13012;SDS011;22580;57.670;12.006;2023-04-24T07:38:00;4.07;;;3.77;;
13012;SDS011;22580;57.670;12.006;2023-04-24T07:40:27;4.03;;;3.73;;
13012;SDS011;22580;57.670;12.006;2023-04-24T07:42:55;3.70;;;3.40;;
13012;SDS011;22580;57.670;12.006;2023-04-24T07:45:22;4.10;;;3.70;;
13012;SDS011;22580;57.670;12.006;2023-04-24T07:47:51;3.70;;;3.40;;
13012;SDS011;22580;57.670;12.006;2023-04-24T07:50:18;3.00;;;2.80;;
13012;SDS011;22580;57.670;12.006;2023-04-24T07:52:45;3.80;;;3.50;;
13012;SDS011;22580;57.670;12.006;2023-04-24T07:55:12;3.83;;;3.53;;
13012;SDS011;22580;57.670;12.006;2023-04-24T07:57:41;3.60;;;3.30;;
13012;SDS011;22580;57.670;12.006;2023-04-24T08:00:10;4.13;;;3.73;;
13012;SDS011;22580;57.670;12.006;2023-04-24T08:02:38;3.60;;;3.30;;
13012;SDS011;22580;57.670;12.006;2023-04-24T08:05:06;3.40;;;3.10;;
13012;SDS011;22580;57.670;12.006;2023-04-24T08:07:33;3.83;;;3.50;;
13012;SDS011;22580;57.670;12.006;2023-04-24T08:10:00;4.70;;;4.30;;
13012;SDS011;22580;57.670;12.006;2023-04-24T08:12:28;4.60;;;4.20;;
13012;SDS011;22580;57.670;12.006;2023-04-24T08:14:55;4.60;;;4.20;;
13012;SDS011;22580;57.670;12.006;2023-04-24T08:17:24;4.40;;;4.00;;
13012;SDS011;22580;57.670;12.006;2023-04-24T08:19:51;3.87;;;3.57;;
13012;SDS011;22580;57.670;12.006;2023-04-24T08:22:24;3.20;;;3.00;;
13012;SDS011;22580;57.670;12.006;2023-04-24T08:24:51;3.30;;;3.00;;
13012;SDS011;22580;57.670;12.006;2023-04-24T08:27:22;3.67;;;3.37;;
13012;SDS011;22580;57.670;12.006;2023-04-24T08:29:53;3.57;;;3.27;;
13012;SDS011;22580;57.670;12.006;2023-04-24T08:32:20;3.50;;;3.20;;
13012;SDS011;22580;57.670;12.006;2023-04-24T08:34:48;4.13;;;3.73;;
13012;SDS011;22580;57.670;12.006;2023-04-24T08:37:17;3.90;;;3.60;;
13012;SDS011;22580;57.670;12.006;2023-04-24T08:39:44;3.83;;;3.53;;
13012;SDS011;22580;57.670;12.006;2023-04-24T08:42:11;3.60;;;3.30;;
13012;SDS011;22580;57.670;12.006;2023-04-24T08:44:41;3.83;;;3.53;;
13012;SDS011;22580;57.670;12.006;2023-04-24T08:47:09;3.87;;;3.57;;
13012;SDS011;22580;57.670;12.006;2023-04-24T08:49:38;4.10;;;3.80;;
13012;SDS011;22580;57.670;12.006;2023-04-24T08:52:06;4.27;;;3.87;;
13012;SDS011;22580;57.670;12.006;2023-04-24T08:54:34;4.63;;;4.23;;
13012;SDS011;22580;57.670;12.006;2023-04-24T08:57:01;4.30;;;3.90;;
13012;SDS011;22580;57.670;12.006;2023-04-24T08:59:29;4.17;;;3.77;;
13012;SDS011;22580;57.670;12.006;2023-04-24T09:01:57;3.30;;;2.87;;
13012;SDS011;22580;57.670;12.006;2023-04-24T09:04:26;3.67;;;3.37;;
13012;SDS011;22580;57.670;12.006;2023-04-24T09:06:55;3.40;;;3.10;;
13012;SDS011;22580;57.670;12.006;2023-04-24T09:09:25;2.73;;;2.53;;
13012;SDS011;22580;57.670;12.006;2023-04-24T09:11:52;2.87;;;2.67;;
13012;SDS011;22580;57.670;12.006;2023-04-24T09:14:21;3.30;;;3.00;;
13012;SDS011;22580;57.670;12.006;2023-04-24T09:16:48;3.20;;;2.90;;
13012;SDS011;22580;57.670;12.006;2023-04-24T09:19:15;2.70;;;2.50;;
13012;SDS011;22580;57.670;12.006;2023-04-24T09:21:45;2.57;;;2.37;;
13012;SDS011;22580;57.670;12.006;2023-04-24T09:24:14;2.50;;;2.30;;
13012;SDS011;22580;57.670;12.006;2023-04-24T09:26:44;3.20;;;3.00;;
13012;SDS011;22580;57.670;12.006;2023-04-24T09:29:14;2.07;;;1.97;;
13012;SDS011;22580;57.670;12.006;2023-04-24T09:31:41;2.10;;;2.00;;
13012;SDS011;22580;57.670;12.006;2023-04-24T09:34:11;2.37;;;2.17;;
13012;SDS011;22580;57.670;12.006;2023-04-24T09:36:38;3.03;;;2.73;;
13012;SDS011;22580;57.670;12.006;2023-04-24T09:39:07;3.20;;;2.90;;
13012;SDS011;22580;57.670;12.006;2023-04-24T09:41:36;2.77;;;2.57;;
13012;SDS011;22580;57.670;12.006;2023-04-24T09:44:12;3.03;;;2.83;;
13012;SDS011;22580;57.670;12.006;2023-04-24T09:46:40;3.60;;;3.30;;
13012;SDS011;22580;57.670;12.006;2023-04-24T09:49:08;3.33;;;3.03;;
13012;SDS011;22580;57.670;12.006;2023-04-24T09:51:37;2.83;;;2.63;;
13012;SDS011;22580;57.670;12.006;2023-04-24T09:54:11;3.40;;;3.10;;
13012;SDS011;22580;57.670;12.006;2023-04-24T09:56:42;4.20;;;3.83;;
13012;SDS011;22580;57.670;12.006;2023-04-24T09:59:11;3.53;;;3.23;;
13012;SDS011;22580;57.670;12.006;2023-04-24T10:01:39;4.10;;;3.70;;
13012;SDS011;22580;57.670;12.006;2023-04-24T10:06:53;3.20;;;3.00;;
13012;SDS011;22580;57.670;12.006;2023-04-24T10:09:21;3.53;;;3.23;;
13012;SDS011;22580;57.670;12.006;2023-04-24T10:11:51;3.30;;;3.00;;
13012;SDS011;22580;57.670;12.006;2023-04-24T10:14:20;3.67;;;3.37;;
13012;SDS011;22580;57.670;12.006;2023-04-24T10:16:48;4.10;;;3.70;;
13012;SDS011;22580;57.670;12.006;2023-04-24T10:19:16;3.73;;;3.23;;
13012;SDS011;22580;57.670;12.006;2023-04-24T10:21:44;3.77;;;3.47;;
13012;SDS011;22580;57.670;12.006;2023-04-24T10:24:12;3.43;;;3.13;;
13012;SDS011;22580;57.670;12.006;2023-04-24T10:26:40;3.47;;;3.17;;
13012;SDS011;22580;57.670;12.006;2023-04-24T10:29:09;3.67;;;3.27;;
13012;SDS011;22580;57.670;12.006;2023-04-24T10:31:37;3.80;;;3.50;;
13012;SDS011;22580;57.670;12.006;2023-04-24T10:34:05;3.20;;;3.00;;
13012;SDS011;22580;57.670;12.006;2023-04-24T10:36:33;2.83;;;2.63;;
13012;SDS011;22580;57.670;12.006;2023-04-24T10:39:02;3.10;;;2.90;;
13012;SDS011;22580;57.670;12.006;2023-04-24T10:41:32;3.30;;;3.00;;
13012;SDS011;22580;57.670;12.006;2023-04-24T10:44:06;3.60;;;3.30;;
13012;SDS011;22580;57.670;12.006;2023-04-24T10:46:36;3.20;;;2.90;;
13012;SDS011;22580;57.670;12.006;2023-04-24T10:49:03;3.20;;;2.90;;
13012;SDS011;22580;57.670;12.006;2023-04-24T10:51:44;3.60;;;3.30;;
13012;SDS011;22580;57.670;12.006;2023-04-24T10:54:22;3.60;;;3.30;;
13012;SDS011;22580;57.670;12.006;2023-04-24T10:56:50;3.50;;;3.20;;
13012;SDS011;22580;57.670;12.006;2023-04-24T10:59:25;3.60;;;3.30;;
13012;SDS011;22580;57.670;12.006;2023-04-24T11:01:53;2.90;;;2.70;;
13012;SDS011;22580;57.670;12.006;2023-04-24T11:04:28;2.57;;;2.40;;
13012;SDS011;22580;57.670;12.006;2023-04-24T11:06:56;3.13;;;2.93;;
13012;SDS011;22580;57.670;12.006;2023-04-24T11:09:26;3.00;;;2.80;;
13012;SDS011;22580;57.670;12.006;2023-04-24T11:12:02;3.90;;;3.60;;
13012;SDS011;22580;57.670;12.006;2023-04-24T11:14:36;3.50;;;3.30;;
13012;SDS011;22580;57.670;12.006;2023-04-24T11:17:30;3.20;;;3.00;;
13012;SDS011;22580;57.670;12.006;2023-04-24T11:20:02;3.20;;;2.97;;
13012;SDS011;22580;57.670;12.006;2023-04-24T11:22:30;3.33;;;2.97;;
13012;SDS011;22580;57.670;12.006;2023-04-24T11:25:00;3.00;;;2.80;;
13012;SDS011;22580;57.670;12.006;2023-04-24T11:27:29;3.03;;;2.83;;
13012;SDS011;22580;57.670;12.006;2023-04-24T11:30:02;2.70;;;2.50;;
13012;SDS011;22580;57.670;12.006;2023-04-24T11:32:30;3.67;;;3.37;;
13012;SDS011;22580;57.670;12.006;2023-04-24T11:35:01;3.20;;;3.00;;
13012;SDS011;22580;57.670;12.006;2023-04-24T11:37:33;3.07;;;2.87;;
13012;SDS011;22580;57.670;12.006;2023-04-24T11:40:02;3.17;;;2.90;;
13012;SDS011;22580;57.670;12.006;2023-04-24T11:42:33;3.10;;;2.90;;
13012;SDS011;22580;57.670;12.006;2023-04-24T11:45:06;3.67;;;3.37;;
13012;SDS011;22580;57.670;12.006;2023-04-24T11:47:34;2.80;;;2.60;;
13012;SDS011;22580;57.670;12.006;2023-04-24T11:50:02;2.80;;;2.53;;
13012;SDS011;22580;57.670;12.006;2023-04-24T11:52:30;2.57;;;2.37;;
13012;SDS011;22580;57.670;12.006;2023-04-24T11:54:57;2.33;;;2.22;;
13012;SDS011;22580;57.670;12.006;2023-04-24T11:57:26;2.77;;;2.57;;
13012;SDS011;22580;57.670;12.006;2023-04-24T11:59:58;3.25;;;3.00;;
13012;SDS011;22580;57.670;12.006;2023-04-24T12:02:26;3.03;;;2.83;;
13012;SDS011;22580;57.670;12.006;2023-04-24T12:04:54;3.03;;;2.83;;
13012;SDS011;22580;57.670;12.006;2023-04-24T12:07:22;2.90;;;2.70;;
13012;SDS011;22580;57.670;12.006;2023-04-24T12:09:54;2.75;;;2.55;;
13012;SDS011;22580;57.670;12.006;2023-04-24T12:12:24;2.45;;;2.30;;
13012;SDS011;22580;57.670;12.006;2023-04-24T12:14:53;2.30;;;2.10;;
13012;SDS011;22580;57.670;12.006;2023-04-24T12:17:24;3.00;;;2.70;;
13012;SDS011;22580;57.670;12.006;2023-04-24T12:19:58;2.65;;;2.55;;
13012;SDS011;22580;57.670;12.006;2023-04-24T12:22:27;2.53;;;2.38;;
13012;SDS011;22580;57.670;12.006;2023-04-24T12:24:58;2.58;;;2.38;;
13012;SDS011;22580;57.670;12.006;2023-04-24T12:27:29;2.30;;;2.20;;
13012;SDS011;22580;57.670;12.006;2023-04-24T12:29:57;1.75;;;1.65;;
13012;SDS011;22580;57.670;12.006;2023-04-24T12:32:27;2.20;;;2.10;;
13012;SDS011;22580;57.670;12.006;2023-04-24T12:34:54;2.60;;;2.40;;
13012;SDS011;22580;57.670;12.006;2023-04-24T12:37:22;1.88;;;1.77;;
13012;SDS011;22580;57.670;12.006;2023-04-24T12:40:00;2.58;;;2.00;;
13012;SDS011;22580;57.670;12.006;2023-04-24T12:42:29;2.10;;;1.85;;
13012;SDS011;22580;57.670;12.006;2023-04-24T12:44:56;2.20;;;2.10;;
13012;SDS011;22580;57.670;12.006;2023-04-24T12:47:27;2.20;;;2.00;;
13012;SDS011;22580;57.670;12.006;2023-04-24T12:49:54;1.80;;;1.70;;
13012;SDS011;22580;57.670;12.006;2023-04-24T12:52:21;1.90;;;1.80;;
13012;SDS011;22580;57.670;12.006;2023-04-24T12:54:49;1.83;;;1.73;;
13012;SDS011;22580;57.670;12.006;2023-04-24T12:57:18;1.83;;;1.73;;
13012;SDS011;22580;57.670;12.006;2023-04-24T12:59:45;2.10;;;2.00;;
13012;SDS011;22580;57.670;12.006;2023-04-24T13:02:12;1.93;;;1.83;;
13012;SDS011;22580;57.670;12.006;2023-04-24T13:04:43;1.90;;;1.80;;
13012;SDS011;22580;57.670;12.006;2023-04-24T13:07:12;2.17;;;2.07;;
13012;SDS011;22580;57.670;12.006;2023-04-24T13:09:39;2.10;;;2.00;;
13012;SDS011;22580;57.670;12.006;2023-04-24T13:12:07;2.50;;;2.30;;
13012;SDS011;22580;57.670;12.006;2023-04-24T13:14:34;2.30;;;2.20;;
13012;SDS011;22580;57.670;12.006;2023-04-24T13:17:01;1.73;;;1.63;;
13012;SDS011;22580;57.670;12.006;2023-04-24T13:19:28;2.30;;;2.20;;
13012;SDS011;22580;57.670;12.006;2023-04-24T13:21:57;2.63;;;2.25;;
13012;SDS011;22580;57.670;12.006;2023-04-24T13:24:24;2.17;;;2.08;;
13012;SDS011;22580;57.670;12.006;2023-04-24T13:26:51;2.20;;;2.00;;
13012;SDS011;22580;57.670;12.006;2023-04-24T13:29:18;1.97;;;1.87;;
13012;SDS011;22580;57.670;12.006;2023-04-24T13:31:45;1.70;;;1.60;;
13012;SDS011;22580;57.670;12.006;2023-04-24T13:34:12;1.83;;;1.73;;
13012;SDS011;22580;57.670;12.006;2023-04-24T13:36:39;2.00;;;1.87;;
13012;SDS011;22580;57.670;12.006;2023-04-24T13:39:08;1.30;;;1.30;;
13012;SDS011;22580;57.670;12.006;2023-04-24T13:41:35;1.80;;;1.70;;
13012;SDS011;22580;57.670;12.006;2023-04-24T13:44:02;1.80;;;1.70;;
13012;SDS011;22580;57.670;12.006;2023-04-24T13:46:29;1.70;;;1.60;;
13012;SDS011;22580;57.670;12.006;2023-04-24T13:48:57;1.60;;;1.50;;
13012;SDS011;22580;57.670;12.006;2023-04-24T13:51:25;1.07;;;1.07;;
13012;SDS011;22580;57.670;12.006;2023-04-24T13:53:53;1.50;;;1.50;;
13012;SDS011;22580;57.670;12.006;2023-04-24T13:56:21;1.23;;;1.20;;
13012;SDS011;22580;57.670;12.006;2023-04-24T13:58:49;1.08;;;1.08;;
13012;SDS011;22580;57.670;12.006;2023-04-24T14:01:16;1.65;;;1.55;;
13012;SDS011;22580;57.670;12.006;2023-04-24T14:03:43;1.60;;;1.50;;
13012;SDS011;22580;57.670;12.006;2023-04-24T14:06:11;1.10;;;1.10;;
13012;SDS011;22580;57.670;12.006;2023-04-24T14:08:38;1.45;;;1.40;;
13012;SDS011;22580;57.670;12.006;2023-04-24T14:11:05;1.27;;;1.27;;
13012;SDS011;22580;57.670;12.006;2023-04-24T14:13:36;1.50;;;1.40;;
13012;SDS011;22580;57.670;12.006;2023-04-24T14:16:04;1.50;;;1.40;;
13012;SDS011;22580;57.670;12.006;2023-04-24T14:18:32;1.85;;;1.75;;
13012;SDS011;22580;57.670;12.006;2023-04-24T14:20:59;1.83;;;1.73;;
13012;SDS011;22580;57.670;12.006;2023-04-24T14:23:26;3.00;;;2.80;;
13012;SDS011;22580;57.670;12.006;2023-04-24T14:25:54;3.60;;;3.03;;
13012;SDS011;22580;57.670;12.006;2023-04-24T14:28:24;3.17;;;2.92;;
13012;SDS011;22580;57.670;12.006;2023-04-24T14:30:52;3.10;;;2.90;;
13012;SDS011;22580;57.670;12.006;2023-04-24T14:33:19;2.97;;;2.38;;
13012;SDS011;22580;57.670;12.006;2023-04-24T14:35:46;3.58;;;3.22;;
13012;SDS011;22580;57.670;12.006;2023-04-24T14:38:14;3.50;;;3.20;;
13012;SDS011;22580;57.670;12.006;2023-04-24T14:40:41;2.60;;;2.40;;